Portada
METAR-TAF:

METAR-TAF

Aeroports :

Thoothukudi, Índia

latitud: 8-43-27N, longitud: 78-01-33E, altitud: 39 m

Observació

L'informe es va fer fa 4 hores i 39 minuts, a les 12:00 UTC
Vent 15 kt del Oest amb ràfegues de 25 kt
Temperatura 31°C
Humitat 63%
Pressió 1005 hPa
Visibilitat: 6000 m
Núvols disperses a una alçada de 1800 ft
Cel ennuvolat a una alçada de 10000 ft

METAR: VOTK 251200Z 28015G25KT 6000 SCT018 BKN100 31/23 Q1005 NOSIG

Hora: 22:09 (16:39 UTC)


TAF: manca

Observacions i pronòstics meteorològics de més de 4000 aeroports (METAR i TAF).

Les estacions disponibles són els punts grocs i vermells al mapa.

Posi el ratolí al punt desitjat per veure el nom de l'estació.

Feu clic per veure les observacions i els pronòstics meteorològics.

Per canviar el mapa: feu clic els botons verds amb una creu de color negre per apropar; al botó verd amb un guió per allunyar la imatge; o en les fletxes verdes per a mapes adjacents.


METAR-TAF: